Time;durP1;ratioP1;P1;durP2;ratioP2;P2;SDS_P1;SDS_P2;PMS_P1;PMS_P2;Temp;Humidity;BMP_temperature;BMP_pressure;BME280_temperature;BME280_humidity;BME280_pressure;Samples;Min_cycle;Max_cycle;Signal;HPM_P1;HPM_P2
2022/06/28 00:01:56;;;;;;;1999.90;999.90;;;;;;;22.05;77.17;95831.00;5029883;28;20025;-66
2022/06/28 00:04:21;;;;;;;1999.90;999.90;;;;;;;22.13;77.04;95848.22;5030121;28;20020;-66
2022/06/28 00:06:47;;;;;;;1999.90;999.90;;;;;;;22.07;77.38;95834.16;5047200;28;20020;-66
2022/06/28 00:09:14;;;;;;;1999.90;999.90;;;;;;;22.21;76.99;95850.66;5048030;28;20024;-66
2022/06/28 00:11:41;;;;;;;1999.90;999.90;;;;;;;22.33;76.82;95841.59;5031782;28;20144;-66
2022/06/28 00:16:04;;;;;;;1999.90;999.90;;;;;;;22.20;76.50;95808.47;5039983;28;20026;-67
2022/06/28 00:16:52;;;;;;;1999.90;999.90;;;;;;;22.16;75.74;95837.44;5029905;28;20041;-67
2022/06/28 00:19:17;;;;;;;1999.90;999.90;;;;;;;21.29;75.20;95822.59;5030050;28;20029;-67
2022/06/28 00:21:42;;;;;;;1999.90;999.90;;;;;;;21.09;77.36;95850.75;5029424;28;20045;-67
2022/06/28 00:24:08;;;;;;;1999.90;999.90;;;;;;;20.92;77.44;95843.84;5028857;28;20064;-67
2022/06/28 00:26:33;;;;;;;1999.90;999.90;;;;;;;20.62;79.02;95832.72;5029859;28;20036;-67
2022/06/28 00:28:58;;;;;;;1999.90;999.90;;;;;;;20.52;77.97;95839.44;5041755;28;20037;-67
2022/06/28 00:31:25;;;;;;;1999.90;999.90;;;;;;;20.18;79.50;95844.41;5039495;28;20057;-67
2022/06/28 00:33:50;;;;;;;1999.90;999.90;;;;;;;20.11;80.13;95821.84;5028563;28;20030;-67
2022/06/28 00:36:16;;;;;;;1999.90;999.90;;;;;;;19.82;81.25;95809.56;5031959;28;20091;-68
2022/06/28 00:38:41;;;;;;;1999.90;999.90;;;;;;;19.85;81.44;95823.13;5029808;28;20025;-67
2022/06/28 00:41:07;;;;;;;1999.90;999.90;;;;;;;19.94;82.00;95833.75;5028136;28;20025;-67
2022/06/28 00:43:35;;;;;;;1999.90;999.90;;;;;;;19.60;82.93;95827.06;5029264;28;20021;-67
2022/06/28 00:46:00;;;;;;;1999.90;999.90;;;;;;;19.78;81.83;95822.16;5030634;28;20018;-67
2022/06/28 00:48:27;;;;;;;1999.90;999.90;;;;;;;19.32;83.81;95845.94;5029693;28;20544;-67
2022/06/28 00:50:53;;;;;;;1999.90;999.90;;;;;;;19.41;83.57;95827.72;5027567;28;20030;-67
2022/06/28 00:53:19;;;;;;;1999.90;999.90;;;;;;;20.02;81.73;95840.94;5028244;28;20137;-67
2022/06/28 00:55:45;;;;;;;1999.90;999.90;;;;;;;20.17;80.31;95802.34;5029352;28;20510;-68
2022/06/28 00:58:11;;;;;;;1999.90;999.90;;;;;;;20.26;79.87;95808.31;5043857;28;20100;-67
2022/06/28 01:00:40;;;;;;;1999.90;999.90;;;;;;;20.46;79.18;95819.22;5029667;28;20030;-67
2022/06/28 01:03:06;;;;;;;1999.90;999.90;;;;;;;20.35;78.31;95823.59;5049308;28;20429;-67
2022/06/28 01:05:31;;;;;;;1999.90;999.90;;;;;;;20.80;78.63;95862.88;5044161;28;20026;-67
2022/06/28 01:07:59;;;;;;;1999.90;999.90;;;;;;;20.81;78.14;95832.00;5043968;28;20025;-68
2022/06/28 01:10:26;;;;;;;1999.90;999.90;;;;;;;20.77;77.78;95840.03;5045530;28;20032;-68
2022/06/28 01:12:51;;;;;;;1999.90;999.90;;;;;;;20.19;77.63;95848.69;5044657;28;20429;-68
2022/06/28 01:15:17;;;;;;;1999.90;999.90;;;;;;;20.48;78.38;95861.00;5027210;28;20061;-67
2022/06/28 01:17:42;;;;;;;1999.90;999.90;;;;;;;20.75;78.47;95861.22;5030836;28;20398;-67
2022/06/28 01:20:08;;;;;;;1999.90;999.90;;;;;;;20.94;78.04;95871.31;5027015;28;20025;-68
2022/06/28 01:22:41;;;;;;;1999.90;999.90;;;;;;;20.92;77.83;95855.44;5029274;28;20478;-67
2022/06/28 01:25:10;;;;;;;1999.90;999.90;;;;;;;21.22;77.50;95898.22;5029302;28;20497;-68
2022/06/28 01:27:36;;;;;;;1999.90;999.90;;;;;;;21.31;77.33;95904.25;5027781;28;20068;-67
2022/06/28 01:30:07;;;;;;;1999.90;999.90;;;;;;;21.20;77.07;95881.56;5028511;28;20470;-67
2022/06/28 01:32:33;;;;;;;1999.90;999.90;;;;;;;21.14;76.85;95880.25;5029348;28;20040;-67
2022/06/28 01:35:00;;;;;;;1999.90;999.90;;;;;;;21.15;76.25;95901.56;5031084;28;20042;-67
2022/06/28 01:37:25;;;;;;;1999.90;999.90;;;;;;;20.94;76.78;95888.34;5047978;28;20143;-68
2022/06/28 01:39:51;;;;;;;1999.90;999.90;;;;;;;20.32;76.21;95864.78;5051883;28;20107;-68
2022/06/28 01:42:16;;;;;;;1999.90;999.90;;;;;;;20.61;77.81;95883.31;5037235;28;20470;-67
2022/06/28 01:44:43;;;;;;;1999.90;999.90;;;;;;;20.94;77.86;95909.19;5031878;28;20033;-67
2022/06/28 01:47:12;;;;;;;1999.90;999.90;;;;;;;20.67;77.50;95876.50;5032944;28;20068;-67
2022/06/28 01:49:37;;;;;;;1999.90;999.90;;;;;;;20.85;77.57;95903.97;5032979;28;20029;-67
2022/06/28 01:52:03;;;;;;;1999.90;999.90;;;;;;;20.84;77.77;95917.84;5032112;28;20036;-67
2022/06/28 01:54:28;;;;;;;1999.90;999.90;;;;;;;20.87;77.37;95909.00;5038736;28;20025;-68
2022/06/28 01:56:55;;;;;;;1999.90;999.90;;;;;;;20.64;77.72;95896.13;5049239;28;20052;-67
2022/06/28 01:59:21;;;;;;;1999.90;999.90;;;;;;;20.38;77.43;95934.47;5042708;28;20362;-67
2022/06/28 02:01:46;;;;;;;1999.90;999.90;;;;;;;20.48;78.36;95933.19;5031020;22;20042;-72
2022/06/28 02:04:27;;;;;;;1999.90;999.90;;;;;;;20.87;77.94;95928.72;4996247;28;20034;-72
2022/06/28 02:06:53;;;;;;;1999.90;999.90;;;;;;;21.17;77.68;95945.25;5021567;28;20026;-72
2022/06/28 02:09:19;;;;;;;1999.90;999.90;;;;;;;21.33;77.35;95949.88;4992046;28;20067;-73
2022/06/28 02:11:44;;;;;;;1999.90;999.90;;;;;;;21.33;77.34;95920.91;4990194;28;20022;-70
2022/06/28 02:14:09;;;;;;;1999.90;999.90;;;;;;;21.42;76.56;95939.66;4990463;28;20034;-70
2022/06/28 02:16:35;;;;;;;1999.90;999.90;;;;;;;21.18;76.12;95916.28;4992051;28;20034;-71
2022/06/28 02:19:02;;;;;;;1999.90;999.90;;;;;;;21.39;76.84;95941.13;4992760;28;20029;-72
2022/06/28 02:21:27;;;;;;;1999.90;999.90;;;;;;;21.22;76.48;95925.25;4991361;28;20081;-73
2022/06/28 02:23:53;;;;;;;1999.90;999.90;;;;;;;21.00;76.54;95918.59;4991233;28;20395;-73
2022/06/28 02:26:18;;;;;;;1999.90;999.90;;;;;;;21.09;76.78;95915.69;4992745;28;20033;-71
2022/06/28 02:28:44;;;;;;;1999.90;999.90;;;;;;;21.12;76.93;95920.41;4992216;28;20030;-73
2022/06/28 02:31:14;;;;;;;1999.90;999.90;;;;;;;21.18;76.97;95940.63;4991726;28;20027;-71
2022/06/28 02:33:40;;;;;;;1999.90;999.90;;;;;;;21.20;76.72;95927.56;5007703;28;20022;-71
2022/06/28 02:41:35;;;;;;;1999.90;999.90;;;;;;;21.23;77.25;95921.41;4972704;28;20038;-71
2022/06/28 02:44:01;;;;;;;1999.90;999.90;;;;;;;21.12;77.04;95913.06;4980163;28;20037;-72
2022/06/28 02:46:26;;;;;;;1999.90;999.90;;;;;;;20.99;76.76;95895.41;4988412;28;20031;-72
2022/06/28 02:48:52;;;;;;;1999.90;999.90;;;;;;;21.25;77.09;95917.22;4991936;28;20030;-72
2022/06/28 02:51:17;;;;;;;1999.90;999.90;;;;;;;20.94;76.12;95909.19;4989871;28;20026;-72
2022/06/28 02:53:42;;;;;;;1999.90;999.90;;;;;;;20.93;76.31;95926.53;4990466;28;20480;-73
2022/06/28 02:56:08;;;;;;;1999.90;999.90;;;;;;;20.82;76.87;95928.19;4992007;28;20494;-71
2022/06/28 02:58:33;;;;;;;1999.90;999.90;;;;;;;20.96;77.17;95926.63;4991247;28;20045;-72
2022/06/28 03:00:58;;;;;;;1999.90;999.90;;;;;;;20.98;76.47;95923.56;4991118;28;20494;-72
2022/06/28 03:03:24;;;;;;;1999.90;999.90;;;;;;;20.85;76.52;95928.28;4990020;28;20468;-72
2022/06/28 03:05:50;;;;;;;1999.90;999.90;;;;;;;20.93;77.09;95921.13;4991537;28;20034;-72
2022/06/28 03:08:15;;;;;;;1999.90;999.90;;;;;;;20.72;76.80;95916.00;4991816;28;20034;-72
2022/06/28 03:10:40;;;;;;;1999.90;999.90;;;;;;;20.71;76.98;95928.72;4989470;28;20455;-72
2022/06/28 03:13:06;;;;;;;1999.90;999.90;;;;;;;20.94;77.18;95942.44;4989899;28;20037;-72
2022/06/28 03:15:31;;;;;;;1999.90;999.90;;;;;;;20.76;77.14;95912.25;4989540;28;20033;-72
2022/06/28 03:17:56;;;;;;;1999.90;999.90;;;;;;;20.92;77.47;95925.75;4991590;28;20022;-72
2022/06/28 03:20:22;;;;;;;1999.90;999.90;;;;;;;20.84;77.04;95926.72;4989716;28;20023;-72
2022/06/28 03:22:47;;;;;;;1999.90;999.90;;;;;;;21.07;77.17;95929.56;4991920;28;20076;-73
2022/06/28 03:25:13;;;;;;;1999.90;999.90;;;;;;;21.00;76.63;95910.47;4991565;28;20033;-72
2022/06/28 03:27:38;;;;;;;1999.90;999.90;;;;;;;21.14;77.34;95910.81;4991715;28;20069;-72
2022/06/28 03:30:05;;;;;;;1999.90;999.90;;;;;;;21.20;76.77;95919.44;4989307;28;20874;-71
2022/06/28 03:32:31;;;;;;;1999.90;999.90;;;;;;;21.05;75.23;95918.31;4988828;28;20085;-71
2022/06/28 03:34:56;;;;;;;1999.90;999.90;;;;;;;20.65;75.95;95918.53;4990199;28;20475;-71
2022/06/28 03:37:21;;;;;;;1999.90;999.90;;;;;;;21.00;77.06;95927.50;4989348;28;20056;-71
2022/06/28 03:39:47;;;;;;;1999.90;999.90;;;;;;;20.84;75.92;95932.13;5022931;28;20054;-71
2022/06/28 03:42:13;;;;;;;1999.90;999.90;;;;;;;20.59;76.43;95922.66;4990415;28;20117;-73
2022/06/28 03:44:38;;;;;;;1999.90;999.90;;;;;;;21.07;76.97;95945.78;4990151;28;20076;-72
2022/06/28 03:47:04;;;;;;;1999.90;999.90;;;;;;;21.12;76.87;95931.22;4988954;28;20026;-72
2022/06/28 03:49:29;;;;;;;1999.90;999.90;;;;;;;21.26;76.87;95928.84;4991488;28;20061;-72
2022/06/28 03:51:55;;;;;;;1999.90;999.90;;;;;;;21.19;76.60;95897.00;4990363;28;20030;-72
2022/06/28 03:54:20;;;;;;;1999.90;999.90;;;;;;;21.48;76.30;95935.50;4989963;28;20106;-72
2022/06/28 03:56:45;;;;;;;1999.90;999.90;;;;;;;21.42;75.87;95934.22;4989188;28;20113;-72
2022/06/28 03:59:11;;;;;;;1999.90;999.90;;;;;;;21.55;76.11;95943.81;4991314;28;20106;-72
2022/06/28 04:01:36;;;;;;;1999.90;999.90;;;;;;;21.69;76.41;95930.53;4988149;28;20038;-73
2022/06/28 04:04:01;;;;;;;1999.90;999.90;;;;;;;21.84;75.98;95917.28;4991176;28;20537;-72
2022/06/28 04:06:26;;;;;;;1999.90;999.90;;;;;;;21.83;75.89;95908.38;4990310;28;20030;-72
2022/06/28 04:08:52;;;;;;;1999.90;999.90;;;;;;;21.85;75.90;95916.94;4989403;28;20069;-72
2022/06/28 04:11:17;;;;;;;1999.90;999.90;;;;;;;22.01;75.83;95911.44;4997411;28;20053;-72
2022/06/28 04:13:46;;;;;;;1999.90;999.90;;;;;;;22.25;75.95;95934.75;5006409;28;20360;-72
2022/06/28 04:16:11;;;;;;;1999.90;999.90;;;;;;;22.37;75.24;95940.00;4989183;28;20030;-73
2022/06/28 04:18:37;;;;;;;1999.90;999.90;;;;;;;21.25;73.77;95930.75;4990245;28;20113;-73
2022/06/28 04:21:03;;;;;;;1999.90;999.90;;;;;;;21.43;74.34;95933.09;4988827;28;20030;-73
2022/06/28 04:23:28;;;;;;;1999.90;999.90;;;;;;;21.33;75.56;95910.06;4990288;28;20137;-73
2022/06/28 04:25:54;;;;;;;1999.90;999.90;;;;;;;21.57;74.87;95924.50;5005247;28;20109;-74
2022/06/28 04:28:19;;;;;;;1999.90;999.90;;;;;;;21.49;74.03;95927.03;4990641;28;20074;-75
2022/06/28 04:30:44;;;;;;;1999.90;999.90;;;;;;;21.68;74.96;95933.63;4986721;28;20030;-73
2022/06/28 04:33:10;;;;;;;1999.90;999.90;;;;;;;22.10;75.21;95943.72;4989025;28;20057;-73
2022/06/28 04:35:35;;;;;;;1999.90;999.90;;;;;;;22.20;75.50;95933.09;4989783;28;20030;-72
2022/06/28 04:38:01;;;;;;;1999.90;999.90;;;;;;;21.74;74.24;95929.47;4990507;28;20049;-73
2022/06/28 04:40:27;;;;;;;1999.90;999.90;;;;;;;21.77;74.58;95953.16;4989308;28;20035;-73
2022/06/28 04:42:53;;;;;;;1999.90;999.90;;;;;;;21.15;73.42;95958.38;5006077;28;20037;-73
2022/06/28 04:45:18;;;;;;;1999.90;999.90;;;;;;;21.36;74.81;95944.56;4991820;28;20026;-73
2022/06/28 04:47:43;;;;;;;1999.90;999.90;;;;;;;21.17;75.79;95941.78;4990496;28;20467;-74
2022/06/28 04:50:09;;;;;;;1999.90;999.90;;;;;;;21.09;75.85;95937.31;4985842;28;20033;-74
2022/06/28 04:52:36;;;;;;;1999.90;999.90;;;;;;;20.97;76.00;95928.19;4988160;28;20080;-70
2022/06/28 04:55:01;;;;;;;1999.90;999.90;;;;;;;21.28;76.51;95930.03;4996445;28;20030;-71
2022/06/28 04:57:27;;;;;;;1999.90;999.90;;;;;;;20.73;76.70;95918.38;4989158;28;20403;-71
2022/06/28 04:59:52;;;;;;;1999.90;999.90;;;;;;;21.05;76.33;95928.38;5004498;28;20018;-70
2022/06/28 05:02:17;;;;;;;1999.90;999.90;;;;;;;21.78;76.43;95941.16;4987548;28;20041;-71
2022/06/28 05:04:43;;;;;;;1999.90;999.90;;;;;;;21.96;74.52;95922.56;4988710;28;20402;-72
2022/06/28 05:07:08;;;;;;;1999.90;999.90;;;;;;;22.16;74.71;95931.47;4989268;28;20085;-72
2022/06/28 05:09:33;;;;;;;1999.90;999.90;;;;;;;21.93;73.80;95909.75;4989559;28;20108;-71
2022/06/28 05:11:58;;;;;;;1999.90;999.90;;;;;;;21.48;75.03;95920.06;4988787;28;20034;-70
2022/06/28 05:14:24;;;;;;;1999.90;999.90;;;;;;;21.10;74.03;95904.53;4989816;28;20035;-71
2022/06/28 05:16:49;;;;;;;1999.90;999.90;;;;;;;20.23;75.67;95892.00;4987156;28;20459;-69
2022/06/28 05:19:14;;;;;;;1999.90;999.90;;;;;;;20.85;76.06;95903.19;4987671;28;20030;-71
2022/06/28 05:21:40;;;;;;;1999.90;999.90;;;;;;;21.44;75.90;95894.06;4988383;28;20046;-71
2022/06/28 05:24:05;;;;;;;1999.90;999.90;;;;;;;21.81;75.31;95897.13;4988050;28;20038;-71
2022/06/28 05:26:31;;;;;;;1999.90;999.90;;;;;;;21.40;74.72;95895.94;4989934;28;20027;-69
2022/06/28 05:28:56;;;;;;;1999.90;999.90;;;;;;;21.59;75.46;95871.56;4988523;28;20026;-70
2022/06/28 05:31:21;;;;;;;1999.90;999.90;;;;;;;22.12;74.15;95866.41;4985215;28;20062;-70
2022/06/28 05:33:47;;;;;;;1999.90;999.90;;;;;;;21.76;72.92;95832.44;5001325;28;20052;-71
2022/06/28 05:36:12;;;;;;;1999.90;999.90;;;;;;;22.39;72.46;95880.78;4999174;28;20382;-70
2022/06/28 05:38:37;;;;;;;1999.90;999.90;;;;;;;21.96;71.89;95858.34;4991598;28;20026;-71
2022/06/28 05:41:02;;;;;;;1999.90;999.90;;;;;;;21.66;72.05;95870.94;4990040;28;20085;-71
2022/06/28 05:43:28;;;;;;;1999.90;999.90;;;;;;;21.56;72.99;95849.84;4990205;28;20026;-70
2022/06/28 05:45:53;;;;;;;1999.90;999.90;;;;;;;21.66;71.82;95857.38;4988786;28;20109;-70
2022/06/28 05:48:19;;;;;;;1999.90;999.90;;;;;;;22.39;72.71;95871.88;5021809;28;20149;-72
2022/06/28 05:50:44;;;;;;;1999.90;999.90;;;;;;;22.54;72.55;95843.84;4988515;28;20383;-71
2022/06/28 05:53:09;;;;;;;1999.90;999.90;;;;;;;22.47;71.32;95825.56;4990216;28;20026;-69
2022/06/28 05:55:35;;;;;;;1999.90;999.90;;;;;;;22.64;71.16;95845.94;4989687;28;20034;-69
2022/06/28 05:58:00;;;;;;;1999.90;999.90;;;;;;;22.78;71.31;95815.56;4990273;28;20035;-72
2022/06/28 06:00:26;;;;;;;1999.90;999.90;;;;;;;23.49;72.06;95832.78;4991784;28;20720;-70
2022/06/28 06:02:51;;;;;;;1999.90;999.90;;;;;;;24.16;70.95;95831.97;4988328;28;20375;-70
2022/06/28 06:05:16;;;;;;;1999.90;999.90;;;;;;;24.79;69.21;95841.03;4989824;28;20022;-71
2022/06/28 06:07:42;;;;;;;1999.90;999.90;;;;;;;25.15;67.66;95828.44;4990119;28;20022;-70
2022/06/28 06:10:08;;;;;;;1999.90;999.90;;;;;;;25.49;66.16;95845.34;4987429;28;20418;-70
2022/06/28 06:12:34;;;;;;;1999.90;999.90;;;;;;;25.55;66.47;95810.34;5004881;28;20025;-71
2022/06/28 06:14:59;;;;;;;1999.90;999.90;;;;;;;25.92;66.40;95823.69;4990715;28;20034;-70
2022/06/28 06:17:25;;;;;;;1999.90;999.90;;;;;;;25.71;65.22;95821.66;5007824;28;20034;-70
2022/06/28 06:19:50;;;;;;;1999.90;999.90;;;;;;;24.73;64.15;95816.13;5009100;28;20486;-71
2022/06/28 06:22:16;;;;;;;1999.90;999.90;;;;;;;25.37;66.91;95835.53;5012090;28;20045;-71
2022/06/28 06:24:42;;;;;;;1999.90;999.90;;;;;;;25.61;64.59;95842.25;5012827;28;20026;-71
2022/06/28 06:27:07;;;;;;;1999.90;999.90;;;;;;;25.65;65.97;95812.31;5012672;28;20026;-71
2022/06/28 06:29:33;;;;;;;1999.90;999.90;;;;;;;25.73;66.13;95832.94;5010292;28;20026;-71
2022/06/28 06:31:58;;;;;;;1999.90;999.90;;;;;;;25.51;64.43;95832.09;5008400;28;20050;-70
2022/06/28 06:34:23;;;;;;;1999.90;999.90;;;;;;;25.01;65.13;95801.88;5011163;28;20022;-71
2022/06/28 06:36:50;;;;;;;1999.90;999.90;;;;;;;24.54;62.38;95787.22;5012556;28;20108;-71
2022/06/28 06:39:16;;;;;;;1999.90;999.90;;;;;;;24.47;66.56;95819.03;5010953;28;20467;-71
2022/06/28 06:41:41;;;;;;;1999.90;999.90;;;;;;;24.20;66.51;95813.72;5011826;28;20040;-71
2022/06/28 06:44:06;;;;;;;1999.90;999.90;;;;;;;24.38;67.50;95828.28;5006056;28;20025;-70
2022/06/28 06:46:32;;;;;;;1999.90;999.90;;;;;;;24.17;67.33;95792.75;5004366;28;20033;-71
2022/06/28 06:48:57;;;;;;;1999.90;999.90;;;;;;;24.47;68.23;95789.91;5010899;28;20037;-70
2022/06/28 06:51:23;;;;;;;1999.90;999.90;;;;;;;24.13;67.68;95805.53;5011666;28;20021;-71
2022/06/28 06:53:48;;;;;;;1999.90;999.90;;;;;;;24.30;69.16;95807.59;5012180;28;20518;-70
2022/06/28 06:56:13;;;;;;;1999.90;999.90;;;;;;;24.55;69.32;95785.28;5010840;28;20029;-71
2022/06/28 06:58:39;;;;;;;1999.90;999.90;;;;;;;24.98;67.56;95799.16;5010146;28;20037;-70
2022/06/28 07:01:05;;;;;;;1999.90;999.90;;;;;;;24.95;67.23;95778.94;5015387;28;20033;-71
2022/06/28 07:03:30;;;;;;;1999.90;999.90;;;;;;;25.30;67.66;95785.72;5043880;28;20080;-71
2022/06/28 07:05:55;;;;;;;1999.90;999.90;;;;;;;25.41;67.27;95775.66;5012087;28;20037;-71
2022/06/28 07:08:21;;;;;;;1999.90;999.90;;;;;;;25.03;62.05;95775.09;5010673;28;20125;-71
2022/06/28 07:10:46;;;;;;;1999.90;999.90;;;;;;;24.99;65.85;95777.00;5011518;28;20026;-71
2022/06/28 07:13:11;;;;;;;1999.90;999.90;;;;;;;25.26;67.04;95766.66;5001164;28;20041;-71
2022/06/28 07:15:37;;;;;;;1999.90;999.90;;;;;;;25.27;66.36;95773.66;4992706;28;20256;-71
2022/06/28 07:18:02;;;;;;;1999.90;999.90;;;;;;;25.20;66.98;95795.41;5011916;28;20030;-71
2022/06/28 07:20:28;;;;;;;1999.90;999.90;;;;;;;24.48;64.06;95796.13;5042586;28;20030;-71
2022/06/28 07:22:54;;;;;;;1999.90;999.90;;;;;;;24.39;64.83;95810.03;5011963;28;20075;-71
2022/06/28 07:25:19;;;;;;;1999.90;999.90;;;;;;;24.99;66.82;95806.94;5011483;28;20433;-71
2022/06/28 07:27:44;;;;;;;1999.90;999.90;;;;;;;25.38;65.71;95800.91;5008640;28;20398;-70
2022/06/28 07:30:10;;;;;;;1999.90;999.90;;;;;;;25.12;66.32;95797.31;4990906;28;20486;-71
2022/06/28 07:32:36;;;;;;;1999.90;999.90;;;;;;;24.23;65.40;95821.16;5008290;28;20072;-71
2022/06/28 07:35:01;;;;;;;1999.90;999.90;;;;;;;24.55;65.79;95821.41;5010017;28;20029;-71
2022/06/28 07:37:26;;;;;;;1999.90;999.90;;;;;;;23.70;61.48;95826.84;5009956;28;20026;-70
2022/06/28 07:39:52;;;;;;;1999.90;999.90;;;;;;;22.50;65.36;95824.03;5010909;28;20030;-71
2022/06/28 07:42:17;;;;;;;1999.90;999.90;;;;;;;22.92;66.98;95840.19;5009771;28;20025;-70
2022/06/28 07:44:43;;;;;;;1999.90;999.90;;;;;;;24.00;68.60;95847.72;4997405;28;20137;-71
2022/06/28 07:47:09;;;;;;;1999.90;999.90;;;;;;;23.24;65.25;95843.34;5004172;28;20557;-71
2022/06/28 07:55:05;;;;;;;1999.90;999.90;;;;;;;24.25;65.03;95884.06;5003345;28;20513;-71
2022/06/28 07:57:30;;;;;;;1999.90;999.90;;;;;;;24.13;62.80;95887.06;4991391;28;20054;-71
2022/06/28 07:59:55;;;;;;;1999.90;999.90;;;;;;;22.24;67.55;95885.19;4991749;28;20034;-71
2022/06/28 08:02:21;;;;;;;1999.90;999.90;;;;;;;22.45;65.26;95862.28;5002840;28;20186;-72
2022/06/28 08:04:47;;;;;;;1999.90;999.90;;;;;;;22.37;64.68;95872.25;5010727;28;20036;-71
2022/06/28 08:07:12;;;;;;;1999.90;999.90;;;;;;;23.80;65.46;95853.34;5011011;28;20163;-71
2022/06/28 08:09:38;;;;;;;1999.90;999.90;;;;;;;23.69;61.25;95859.78;5026843;28;20590;-71
2022/06/28 08:12:04;;;;;;;1999.90;999.90;;;;;;;23.34;63.08;95848.13;4989584;28;20067;-71
2022/06/28 08:14:30;;;;;;;1999.90;999.90;;;;;;;23.00;62.46;95843.78;4992219;28;20034;-71
2022/06/28 08:16:56;;;;;;;1999.90;999.90;;;;;;;24.02;63.87;95838.03;4991537;28;20085;-71
2022/06/28 08:19:21;;;;;;;1999.90;999.90;;;;;;;24.03;57.69;95839.59;4991283;28;20035;-71
2022/06/28 08:21:49;;;;;;;1999.90;999.90;;;;;;;23.16;61.66;95825.41;5006111;28;20023;-72
2022/06/28 08:24:14;;;;;;;1999.90;999.90;;;;;;;24.33;60.72;95831.31;4990657;28;20121;-72
2022/06/28 08:26:42;;;;;;;1999.90;999.90;;;;;;;24.08;59.44;95825.66;4989852;28;20555;-73
2022/06/28 08:29:09;;;;;;;1999.90;999.90;;;;;;;23.52;60.08;95815.75;4990546;28;20065;-72
2022/06/28 08:31:34;;;;;;;1999.90;999.90;;;;;;;23.98;62.25;95814.69;4994970;28;20087;-72
2022/06/28 08:34:00;;;;;;;1999.90;999.90;;;;;;;24.53;59.71;95806.66;5009173;28;20034;-72
2022/06/28 08:36:25;;;;;;;1999.90;999.90;;;;;;;24.96;58.25;95815.09;5010518;28;20096;-72
2022/06/28 08:38:50;;;;;;;1999.90;999.90;;;;;;;24.33;56.61;95811.53;5010376;28;20491;-72
2022/06/28 08:41:16;;;;;;;1999.90;999.90;;;;;;;23.29;56.56;95823.25;4996991;28;20035;-72
2022/06/28 08:43:41;;;;;;;1999.90;999.90;;;;;;;24.92;62.01;95811.56;4987937;28;20058;-72
2022/06/28 08:46:07;;;;;;;1999.90;999.90;;;;;;;25.62;56.17;95821.25;4991005;28;20033;-73
2022/06/28 08:48:42;;;;;;;1999.90;999.90;;;;;;;26.49;55.77;95801.16;4986393;28;20050;-72
2022/06/28 08:51:09;;;;;;;1999.90;999.90;;;;;;;25.94;56.41;95805.00;4970759;28;20122;-72
2022/06/28 08:53:36;;;;;;;1999.90;999.90;;;;;;;25.05;59.08;95793.75;4985709;28;20038;-72
2022/06/28 08:56:02;;;;;;;1999.90;999.90;;;;;;;25.42;52.56;95807.94;4988295;28;20041;-72
2022/06/28 08:58:28;;;;;;;1999.90;999.90;;;;;;;25.06;55.88;95804.28;4990912;28;20034;-72
2022/06/28 09:00:53;;;;;;;1999.90;999.90;;;;;;;25.24;55.72;95788.03;4990984;28;20034;-72
2022/06/28 09:03:19;;;;;;;1999.90;999.90;;;;;;;25.36;55.14;95795.09;4993117;28;20038;-72
2022/06/28 09:05:45;;;;;;;1999.90;999.90;;;;;;;25.90;52.89;95805.00;4989465;28;20022;-72
2022/06/28 09:08:10;;;;;;;1999.90;999.90;;;;;;;25.68;57.77;95798.69;5022215;28;20030;-72
2022/06/28 09:10:36;;;;;;;1999.90;999.90;;;;;;;25.38;53.72;95812.59;4989614;28;20530;-72
2022/06/28 09:13:06;;;;;;;1999.90;999.90;;;;;;;25.53;55.35;95791.63;5022350;28;20049;-72
2022/06/28 09:15:53;;;;;;;1999.90;999.90;;;;;;;23.24;56.92;95805.34;4989642;28;20062;-72
2022/06/28 09:18:20;;;;;;;1999.90;999.90;;;;;;;24.87;56.20;95799.09;5006086;28;20498;-72
2022/06/28 09:20:50;;;;;;;1999.90;999.90;;;;;;;24.00;56.46;95805.00;5024897;28;20041;-72
2022/06/28 09:23:30;;;;;;;1999.90;999.90;;;;;;;24.87;53.49;95785.47;5009908;28;20018;-72
2022/06/28 09:26:01;;;;;;;1999.90;999.90;;;;;;;26.09;55.55;95787.47;5008725;28;20026;-72
2022/06/28 09:28:29;;;;;;;1999.90;999.90;;;;;;;26.44;50.64;95784.00;5034801;28;20015;-73
2022/06/28 09:31:13;;;;;;;1999.90;999.90;;;;;;;26.78;48.76;95791.00;4988588;28;20092;-70
2022/06/28 09:33:39;;;;;;;1999.90;999.90;;;;;;;25.77;47.46;95778.50;4989945;28;20027;-73
2022/06/28 09:36:05;;;;;;;1999.90;999.90;;;;;;;26.23;49.29;95775.03;4990120;28;20131;-73
2022/06/28 09:38:32;;;;;;;1999.90;999.90;;;;;;;25.71;48.94;95780.78;4989302;28;20480;-72
2022/06/28 09:41:00;;;;;;;1999.90;999.90;;;;;;;26.02;53.74;95779.31;4987388;28;20499;-71
2022/06/28 09:43:33;;;;;;;1999.90;999.90;;;;;;;27.19;52.99;95772.97;4989590;28;20757;-79
2022/06/28 09:46:03;;;;;;;1999.90;999.90;;;;;;;27.98;53.26;95772.56;4990694;28;20038;-72
2022/06/28 09:48:36;;;;;;;1999.90;999.90;;;;;;;28.06;45.27;95768.63;4989946;28;20035;-72
2022/06/28 09:51:01;;;;;;;1999.90;999.90;;;;;;;27.34;43.41;95776.41;4989568;28;20034;-77
2022/06/28 09:53:29;;;;;;;1999.90;999.90;;;;;;;26.78;45.51;95763.72;4989815;28;20121;-75
2022/06/28 09:56:00;;;;;;;1999.90;999.90;;;;;;;27.31;48.87;95754.56;5024246;28;20029;-75
2022/06/28 09:58:27;;;;;;;1999.90;999.90;;;;;;;26.73;48.61;95745.78;5011508;28;20032;-76
2022/06/28 10:00:53;;;;;;;1999.90;999.90;;;;;;;27.18;44.69;95749.56;5024302;28;20081;-72
2022/06/28 10:03:19;;;;;;;1999.90;999.90;;;;;;;27.57;48.62;95739.59;4989047;28;20414;-73
2022/06/28 10:05:46;;;;;;;1999.90;999.90;;;;;;;28.13;43.88;95733.00;4992965;28;20037;-69
2022/06/28 10:08:11;;;;;;;1999.90;999.90;;;;;;;27.99;45.73;95730.38;4993866;28;20034;-69
2022/06/28 10:10:38;;;;;;;1999.90;999.90;;;;;;;28.19;46.42;95728.63;4993279;28;20483;-68
2022/06/28 10:16:10;;;;;;;1999.90;999.90;;;;;;;28.28;43.85;95711.75;4994445;28;20526;-70
2022/06/28 10:18:38;;;;;;;1999.90;999.90;;;;;;;28.43;45.81;95710.47;5006594;28;20064;-71
2022/06/28 10:21:03;;;;;;;1999.90;999.90;;;;;;;28.69;43.96;95711.00;5010170;28;20026;-71
2022/06/28 10:23:33;;;;;;;1999.90;999.90;;;;;;;28.59;42.54;95728.31;5024204;28;20451;-73
2022/06/28 10:26:07;;;;;;;1999.90;999.90;;;;;;;28.96;47.15;95725.56;4993065;28;20018;-72
2022/06/28 10:28:39;;;;;;;1999.90;999.90;;;;;;;28.61;40.10;95717.72;4993239;28;20022;-71
2022/06/28 10:31:23;;;;;;;1999.90;999.90;;;;;;;28.19;42.18;95731.38;4991855;28;20062;-71
2022/06/28 10:33:53;;;;;;;1999.90;999.90;;;;;;;27.93;44.09;95740.94;4992190;28;20030;-71
2022/06/28 10:36:22;;;;;;;1999.90;999.90;;;;;;;28.55;42.02;95722.09;4991064;28;20019;-70
2022/06/28 10:39:07;;;;;;;1999.90;999.90;;;;;;;27.99;40.60;95719.44;4992802;28;20273;-71
2022/06/28 10:41:43;;;;;;;1999.90;999.90;;;;;;;27.66;40.28;95718.09;4990892;28;20085;-71
2022/06/28 10:44:10;;;;;;;1999.90;999.90;;;;;;;27.96;42.83;95710.09;4992295;28;20030;-70
2022/06/28 10:46:36;;;;;;;1999.90;999.90;;;;;;;28.36;49.14;95705.09;4994149;28;20093;-71
2022/06/28 10:49:07;;;;;;;1999.90;999.90;;;;;;;28.25;45.28;95701.63;5006883;28;20042;-71
2022/06/28 10:51:34;;;;;;;1999.90;999.90;;;;;;;28.38;43.13;95693.72;5000782;28;20031;-70
2022/06/28 10:54:01;;;;;;;1999.90;999.90;;;;;;;28.09;44.70;95685.75;4992149;28;20026;-70
2022/06/28 10:56:28;;;;;;;1999.90;999.90;;;;;;;28.04;42.02;95688.91;4992776;28;20586;-71
2022/06/28 10:58:58;;;;;;;1999.90;999.90;;;;;;;27.66;42.27;95699.72;4992742;28;20382;-70
2022/06/28 11:01:38;;;;;;;1999.90;999.90;;;;;;;27.44;44.56;95704.56;4992606;28;20455;-71
2022/06/28 11:04:08;;;;;;;1999.90;999.90;;;;;;;27.40;46.06;95706.53;5006774;28;20077;-70
2022/06/28 11:06:41;;;;;;;1999.90;999.90;;;;;;;26.34;46.01;95702.16;5006337;28;20041;-71